sensor_id;sensor_type;location;lat;lon;timestamp;P1;durP1;ratioP1;P2;durP2;ratioP2
64520;SDS011;50896;46.714;17.322;2023-09-19T00:00:42;16.17;;;5.38;;
64520;SDS011;50896;46.714;17.322;2023-09-19T00:03:10;10.80;;;5.20;;
64520;SDS011;50896;46.714;17.322;2023-09-19T00:05:38;13.65;;;5.05;;
64520;SDS011;50896;46.714;17.322;2023-09-19T00:08:06;13.00;;;5.05;;
64520;SDS011;50896;46.714;17.322;2023-09-19T00:10:33;12.50;;;5.28;;
64520;SDS011;50896;46.714;17.322;2023-09-19T00:13:03;12.30;;;4.90;;
64520;SDS011;50896;46.714;17.322;2023-09-19T00:15:38;16.70;;;5.78;;
64520;SDS011;50896;46.714;17.322;2023-09-19T00:18:08;14.52;;;5.18;;
64520;SDS011;50896;46.714;17.322;2023-09-19T00:20:36;11.40;;;5.32;;
64520;SDS011;50896;46.714;17.322;2023-09-19T00:23:05;17.90;;;5.85;;
64520;SDS011;50896;46.714;17.322;2023-09-19T00:25:32;14.75;;;5.18;;
64520;SDS011;50896;46.714;17.322;2023-09-19T00:27:59;12.65;;;4.97;;
64520;SDS011;50896;46.714;17.322;2023-09-19T00:30:26;18.75;;;5.47;;
64520;SDS011;50896;46.714;17.322;2023-09-19T00:32:53;13.57;;;5.55;;
64520;SDS011;50896;46.714;17.322;2023-09-19T00:35:21;17.08;;;5.35;;
64520;SDS011;50896;46.714;17.322;2023-09-19T00:37:52;18.50;;;4.95;;
64520;SDS011;50896;46.714;17.322;2023-09-19T00:40:20;19.40;;;4.97;;
64520;SDS011;50896;46.714;17.322;2023-09-19T00:42:47;17.45;;;5.70;;
64520;SDS011;50896;46.714;17.322;2023-09-19T00:45:15;12.95;;;5.65;;
64520;SDS011;50896;46.714;17.322;2023-09-19T00:47:44;16.67;;;5.25;;
64520;SDS011;50896;46.714;17.322;2023-09-19T00:50:20;13.70;;;5.15;;
64520;SDS011;50896;46.714;17.322;2023-09-19T00:52:53;15.38;;;5.10;;
64520;SDS011;50896;46.714;17.322;2023-09-19T00:55:24;15.60;;;5.22;;
64520;SDS011;50896;46.714;17.322;2023-09-19T00:57:52;14.30;;;5.50;;
64520;SDS011;50896;46.714;17.322;2023-09-19T01:00:19;14.38;;;5.38;;
64520;SDS011;50896;46.714;17.322;2023-09-19T01:02:47;15.80;;;5.30;;
64520;SDS011;50896;46.714;17.322;2023-09-19T01:05:15;16.58;;;5.40;;
64520;SDS011;50896;46.714;17.322;2023-09-19T01:07:42;11.02;;;5.00;;
64520;SDS011;50896;46.714;17.322;2023-09-19T01:10:16;16.48;;;5.45;;
64520;SDS011;50896;46.714;17.322;2023-09-19T01:12:54;18.05;;;5.70;;
64520;SDS011;50896;46.714;17.322;2023-09-19T01:18:21;14.80;;;5.03;;
64520;SDS011;50896;46.714;17.322;2023-09-19T01:30:21;14.10;;;4.80;;
64520;SDS011;50896;46.714;17.322;2023-09-19T01:32:54;11.45;;;5.28;;
64520;SDS011;50896;46.714;17.322;2023-09-19T01:35:21;14.75;;;5.65;;
64520;SDS011;50896;46.714;17.322;2023-09-19T01:37:48;17.25;;;5.43;;
64520;SDS011;50896;46.714;17.322;2023-09-19T01:40:16;15.70;;;5.65;;
64520;SDS011;50896;46.714;17.322;2023-09-19T01:42:48;13.10;;;4.90;;
64520;SDS011;50896;46.714;17.322;2023-09-19T01:45:37;15.02;;;5.18;;
64520;SDS011;50896;46.714;17.322;2023-09-19T01:51:26;13.05;;;5.03;;
64520;SDS011;50896;46.714;17.322;2023-09-19T01:57:14;14.75;;;5.10;;
64520;SDS011;50896;46.714;17.322;2023-09-19T01:59:34;15.35;;;5.97;;
64520;SDS011;50896;46.714;17.322;2023-09-19T02:02:04;17.52;;;5.07;;
64520;SDS011;50896;46.714;17.322;2023-09-19T02:04:34;11.77;;;4.63;;
64520;SDS011;50896;46.714;17.322;2023-09-19T02:07:03;16.85;;;5.43;;
64520;SDS011;50896;46.714;17.322;2023-09-19T02:09:32;16.00;;;4.85;;
64520;SDS011;50896;46.714;17.322;2023-09-19T02:12:01;14.55;;;4.90;;
64520;SDS011;50896;46.714;17.322;2023-09-19T02:14:30;15.10;;;4.85;;
64520;SDS011;50896;46.714;17.322;2023-09-19T02:16:57;18.52;;;5.18;;
64520;SDS011;50896;46.714;17.322;2023-09-19T02:19:24;15.48;;;4.68;;
64520;SDS011;50896;46.714;17.322;2023-09-19T02:21:51;12.02;;;5.07;;
64520;SDS011;50896;46.714;17.322;2023-09-19T02:24:19;18.52;;;6.15;;
64520;SDS011;50896;46.714;17.322;2023-09-19T02:26:46;15.73;;;5.10;;
64520;SDS011;50896;46.714;17.322;2023-09-19T02:29:13;13.77;;;4.85;;
64520;SDS011;50896;46.714;17.322;2023-09-19T02:31:41;13.05;;;4.97;;
64520;SDS011;50896;46.714;17.322;2023-09-19T02:34:08;18.70;;;4.97;;
64520;SDS011;50896;46.714;17.322;2023-09-19T02:36:35;17.52;;;5.15;;
64520;SDS011;50896;46.714;17.322;2023-09-19T02:39:03;18.70;;;5.03;;
64520;SDS011;50896;46.714;17.322;2023-09-19T02:41:32;14.77;;;5.68;;
64520;SDS011;50896;46.714;17.322;2023-09-19T02:43:59;16.27;;;5.10;;
64520;SDS011;50896;46.714;17.322;2023-09-19T02:46:28;18.17;;;5.28;;
64520;SDS011;50896;46.714;17.322;2023-09-19T02:48:55;11.05;;;4.57;;
64520;SDS011;50896;46.714;17.322;2023-09-19T02:51:22;17.48;;;5.32;;
64520;SDS011;50896;46.714;17.322;2023-09-19T02:53:50;12.30;;;5.00;;
64520;SDS011;50896;46.714;17.322;2023-09-19T02:56:19;12.77;;;5.35;;
64520;SDS011;50896;46.714;17.322;2023-09-19T02:58:46;13.63;;;4.55;;
64520;SDS011;50896;46.714;17.322;2023-09-19T03:01:15;10.27;;;4.88;;
64520;SDS011;50896;46.714;17.322;2023-09-19T03:03:42;14.65;;;5.07;;
64520;SDS011;50896;46.714;17.322;2023-09-19T03:06:09;18.48;;;5.22;;
64520;SDS011;50896;46.714;17.322;2023-09-19T03:08:36;13.55;;;5.20;;
64520;SDS011;50896;46.714;17.322;2023-09-19T03:11:06;16.38;;;5.50;;
64520;SDS011;50896;46.714;17.322;2023-09-19T03:13:35;15.88;;;5.65;;
64520;SDS011;50896;46.714;17.322;2023-09-19T03:16:06;18.48;;;5.45;;
64520;SDS011;50896;46.714;17.322;2023-09-19T03:18:34;16.20;;;5.30;;
64520;SDS011;50896;46.714;17.322;2023-09-19T03:21:01;15.32;;;5.43;;
64520;SDS011;50896;46.714;17.322;2023-09-19T03:23:28;18.08;;;6.20;;
64520;SDS011;50896;46.714;17.322;2023-09-19T03:25:55;13.35;;;5.10;;
64520;SDS011;50896;46.714;17.322;2023-09-19T03:28:23;13.20;;;5.18;;
64520;SDS011;50896;46.714;17.322;2023-09-19T03:31:25;14.25;;;5.65;;
64520;SDS011;50896;46.714;17.322;2023-09-19T03:33:45;13.57;;;5.40;;
64520;SDS011;50896;46.714;17.322;2023-09-19T03:36:12;10.60;;;5.38;;
64520;SDS011;50896;46.714;17.322;2023-09-19T03:38:40;15.27;;;5.30;;
64520;SDS011;50896;46.714;17.322;2023-09-19T03:41:07;13.93;;;5.63;;
64520;SDS011;50896;46.714;17.322;2023-09-19T03:43:35;12.35;;;5.57;;
64520;SDS011;50896;46.714;17.322;2023-09-19T03:46:03;17.15;;;5.72;;
64520;SDS011;50896;46.714;17.322;2023-09-19T03:48:35;19.33;;;5.82;;
64520;SDS011;50896;46.714;17.322;2023-09-19T03:51:02;11.90;;;5.45;;
64520;SDS011;50896;46.714;17.322;2023-09-19T03:53:29;14.68;;;5.35;;
64520;SDS011;50896;46.714;17.322;2023-09-19T03:55:56;17.92;;;7.18;;
64520;SDS011;50896;46.714;17.322;2023-09-19T03:58:23;18.70;;;5.93;;
64520;SDS011;50896;46.714;17.322;2023-09-19T04:00:54;15.27;;;6.00;;
64520;SDS011;50896;46.714;17.322;2023-09-19T04:03:22;13.85;;;5.45;;
64520;SDS011;50896;46.714;17.322;2023-09-19T04:05:50;14.88;;;5.88;;
64520;SDS011;50896;46.714;17.322;2023-09-19T04:08:17;14.40;;;5.80;;
64520;SDS011;50896;46.714;17.322;2023-09-19T04:10:44;18.35;;;5.72;;
64520;SDS011;50896;46.714;17.322;2023-09-19T04:13:12;8.02;;;3.83;;
64520;SDS011;50896;46.714;17.322;2023-09-19T04:15:39;13.85;;;4.25;;
64520;SDS011;50896;46.714;17.322;2023-09-19T04:18:07;7.47;;;3.05;;
64520;SDS011;50896;46.714;17.322;2023-09-19T04:20:34;6.15;;;2.65;;
64520;SDS011;50896;46.714;17.322;2023-09-19T04:23:01;5.70;;;2.63;;
64520;SDS011;50896;46.714;17.322;2023-09-19T04:25:28;6.50;;;2.28;;
64520;SDS011;50896;46.714;17.322;2023-09-19T04:27:55;3.88;;;1.33;;
64520;SDS011;50896;46.714;17.322;2023-09-19T04:30:22;5.85;;;1.60;;
64520;SDS011;50896;46.714;17.322;2023-09-19T04:32:49;4.25;;;1.40;;
64520;SDS011;50896;46.714;17.322;2023-09-19T04:35:18;5.88;;;1.73;;
64520;SDS011;50896;46.714;17.322;2023-09-19T04:37:44;2.58;;;1.30;;
64520;SDS011;50896;46.714;17.322;2023-09-19T04:40:11;3.08;;;1.30;;
64520;SDS011;50896;46.714;17.322;2023-09-19T04:42:40;3.92;;;1.50;;
64520;SDS011;50896;46.714;17.322;2023-09-19T04:45:07;2.60;;;1.20;;
64520;SDS011;50896;46.714;17.322;2023-09-19T04:47:36;3.22;;;1.48;;
64520;SDS011;50896;46.714;17.322;2023-09-19T04:50:07;3.92;;;1.45;;
64520;SDS011;50896;46.714;17.322;2023-09-19T04:52:41;3.85;;;1.60;;
64520;SDS011;50896;46.714;17.322;2023-09-19T04:55:12;6.55;;;1.98;;
64520;SDS011;50896;46.714;17.322;2023-09-19T04:57:49;1.70;;;1.17;;
64520;SDS011;50896;46.714;17.322;2023-09-19T05:00:17;4.90;;;1.70;;
64520;SDS011;50896;46.714;17.322;2023-09-19T05:02:50;2.00;;;1.42;;
64520;SDS011;50896;46.714;17.322;2023-09-19T05:05:18;1.60;;;0.80;;
64520;SDS011;50896;46.714;17.322;2023-09-19T05:07:46;4.75;;;1.58;;
64520;SDS011;50896;46.714;17.322;2023-09-19T05:10:13;1.60;;;1.23;;
64520;SDS011;50896;46.714;17.322;2023-09-19T05:12:41;2.33;;;0.90;;
64520;SDS011;50896;46.714;17.322;2023-09-19T05:15:10;3.23;;;1.33;;
64520;SDS011;50896;46.714;17.322;2023-09-19T05:17:36;2.03;;;1.27;;
64520;SDS011;50896;46.714;17.322;2023-09-19T05:20:03;2.03;;;1.38;;
64520;SDS011;50896;46.714;17.322;2023-09-19T05:22:42;4.53;;;1.83;;
64520;SDS011;50896;46.714;17.322;2023-09-19T05:25:10;4.70;;;1.40;;
64520;SDS011;50896;46.714;17.322;2023-09-19T05:27:37;3.67;;;1.15;;
64520;SDS011;50896;46.714;17.322;2023-09-19T05:30:04;4.22;;;1.33;;
64520;SDS011;50896;46.714;17.322;2023-09-19T05:32:31;4.10;;;1.40;;
64520;SDS011;50896;46.714;17.322;2023-09-19T05:34:58;2.33;;;1.30;;
64520;SDS011;50896;46.714;17.322;2023-09-19T05:37:25;1.98;;;1.00;;
64520;SDS011;50896;46.714;17.322;2023-09-19T05:39:52;3.15;;;1.15;;
64520;SDS011;50896;46.714;17.322;2023-09-19T05:42:20;1.80;;;1.20;;
64520;SDS011;50896;46.714;17.322;2023-09-19T05:44:47;3.10;;;1.40;;
64520;SDS011;50896;46.714;17.322;2023-09-19T05:47:13;2.95;;;1.45;;
64520;SDS011;50896;46.714;17.322;2023-09-19T05:49:40;4.25;;;0.80;;
64520;SDS011;50896;46.714;17.322;2023-09-19T05:52:07;2.85;;;1.52;;
64520;SDS011;50896;46.714;17.322;2023-09-19T05:54:34;3.47;;;1.42;;
64520;SDS011;50896;46.714;17.322;2023-09-19T05:57:01;1.60;;;1.20;;
64520;SDS011;50896;46.714;17.322;2023-09-19T05:59:28;4.97;;;1.52;;
64520;SDS011;50896;46.714;17.322;2023-09-19T06:01:55;1.95;;;1.08;;
64520;SDS011;50896;46.714;17.322;2023-09-19T06:04:22;2.70;;;1.35;;
64520;SDS011;50896;46.714;17.322;2023-09-19T06:06:49;4.40;;;1.40;;
64520;SDS011;50896;46.714;17.322;2023-09-19T06:09:16;1.30;;;1.17;;
64520;SDS011;50896;46.714;17.322;2023-09-19T06:11:43;1.77;;;1.00;;
64520;SDS011;50896;46.714;17.322;2023-09-19T06:14:10;1.80;;;1.15;;
64520;SDS011;50896;46.714;17.322;2023-09-19T06:16:38;4.68;;;1.10;;
64520;SDS011;50896;46.714;17.322;2023-09-19T06:19:06;2.13;;;1.10;;
64520;SDS011;50896;46.714;17.322;2023-09-19T06:21:36;1.67;;;0.93;;
64520;SDS011;50896;46.714;17.322;2023-09-19T06:24:03;4.05;;;1.70;;
64520;SDS011;50896;46.714;17.322;2023-09-19T06:26:31;2.30;;;1.15;;
64520;SDS011;50896;46.714;17.322;2023-09-19T06:28:58;2.97;;;1.20;;
64520;SDS011;50896;46.714;17.322;2023-09-19T06:31:26;2.70;;;0.80;;
64520;SDS011;50896;46.714;17.322;2023-09-19T06:33:53;4.13;;;1.23;;
64520;SDS011;50896;46.714;17.322;2023-09-19T06:36:20;2.78;;;1.55;;
64520;SDS011;50896;46.714;17.322;2023-09-19T06:38:47;5.00;;;1.70;;
64520;SDS011;50896;46.714;17.322;2023-09-19T06:41:15;2.40;;;1.38;;
64520;SDS011;50896;46.714;17.322;2023-09-19T06:43:44;2.00;;;1.17;;
64520;SDS011;50896;46.714;17.322;2023-09-19T06:46:10;1.83;;;1.00;;
64520;SDS011;50896;46.714;17.322;2023-09-19T06:48:39;3.20;;;1.30;;
64520;SDS011;50896;46.714;17.322;2023-09-19T06:51:06;1.38;;;0.88;;
64520;SDS011;50896;46.714;17.322;2023-09-19T06:53:34;3.05;;;1.30;;
64520;SDS011;50896;46.714;17.322;2023-09-19T06:56:02;2.08;;;1.50;;
64520;SDS011;50896;46.714;17.322;2023-09-19T06:58:29;1.88;;;1.40;;
64520;SDS011;50896;46.714;17.322;2023-09-19T07:00:58;3.17;;;1.80;;
64520;SDS011;50896;46.714;17.322;2023-09-19T07:03:25;4.50;;;1.40;;
64520;SDS011;50896;46.714;17.322;2023-09-19T07:05:53;2.77;;;1.60;;
64520;SDS011;50896;46.714;17.322;2023-09-19T07:08:22;3.33;;;1.23;;
64520;SDS011;50896;46.714;17.322;2023-09-19T07:10:49;1.65;;;0.95;;
64520;SDS011;50896;46.714;17.322;2023-09-19T07:13:16;2.22;;;1.00;;
64520;SDS011;50896;46.714;17.322;2023-09-19T07:15:44;1.83;;;1.17;;
64520;SDS011;50896;46.714;17.322;2023-09-19T07:18:14;3.40;;;1.05;;
64520;SDS011;50896;46.714;17.322;2023-09-19T07:20:44;2.22;;;1.00;;
64520;SDS011;50896;46.714;17.322;2023-09-19T07:23:21;2.33;;;1.52;;
64520;SDS011;50896;46.714;17.322;2023-09-19T07:25:49;3.00;;;1.40;;
64520;SDS011;50896;46.714;17.322;2023-09-19T07:28:17;2.67;;;0.98;;
64520;SDS011;50896;46.714;17.322;2023-09-19T07:30:44;3.88;;;1.05;;
64520;SDS011;50896;46.714;17.322;2023-09-19T07:33:11;2.15;;;1.02;;
64520;SDS011;50896;46.714;17.322;2023-09-19T07:35:38;3.42;;;1.00;;
64520;SDS011;50896;46.714;17.322;2023-09-19T07:38:07;1.63;;;1.00;;
64520;SDS011;50896;46.714;17.322;2023-09-19T07:40:34;2.58;;;1.20;;
64520;SDS011;50896;46.714;17.322;2023-09-19T07:43:01;3.65;;;1.40;;
64520;SDS011;50896;46.714;17.322;2023-09-19T07:45:28;2.72;;;0.88;;
64520;SDS011;50896;46.714;17.322;2023-09-19T07:47:56;2.85;;;1.08;;
64520;SDS011;50896;46.714;17.322;2023-09-19T07:50:23;3.50;;;1.02;;
64520;SDS011;50896;46.714;17.322;2023-09-19T07:52:52;3.42;;;1.20;;
64520;SDS011;50896;46.714;17.322;2023-09-19T07:55:20;3.33;;;1.40;;
64520;SDS011;50896;46.714;17.322;2023-09-19T07:57:50;3.03;;;1.20;;
64520;SDS011;50896;46.714;17.322;2023-09-19T08:00:17;1.40;;;1.10;;
64520;SDS011;50896;46.714;17.322;2023-09-19T08:02:44;3.63;;;0.90;;
64520;SDS011;50896;46.714;17.322;2023-09-19T08:05:15;3.15;;;1.00;;
64520;SDS011;50896;46.714;17.322;2023-09-19T08:07:43;1.75;;;1.10;;
64520;SDS011;50896;46.714;17.322;2023-09-19T08:10:15;3.05;;;1.05;;
64520;SDS011;50896;46.714;17.322;2023-09-19T08:12:43;3.15;;;1.35;;
64520;SDS011;50896;46.714;17.322;2023-09-19T08:15:14;2.70;;;1.10;;
64520;SDS011;50896;46.714;17.322;2023-09-19T08:17:42;1.88;;;1.30;;
64520;SDS011;50896;46.714;17.322;2023-09-19T08:20:09;1.50;;;0.90;;
64520;SDS011;50896;46.714;17.322;2023-09-19T08:22:46;2.67;;;1.13;;
64520;SDS011;50896;46.714;17.322;2023-09-19T08:25:18;1.75;;;1.20;;
64520;SDS011;50896;46.714;17.322;2023-09-19T08:27:45;1.98;;;1.08;;
64520;SDS011;50896;46.714;17.322;2023-09-19T08:30:16;4.00;;;1.20;;
64520;SDS011;50896;46.714;17.322;2023-09-19T08:32:44;3.15;;;1.30;;
64520;SDS011;50896;46.714;17.322;2023-09-19T08:35:12;3.67;;;1.10;;
64520;SDS011;50896;46.714;17.322;2023-09-19T08:37:41;4.00;;;1.40;;
64520;SDS011;50896;46.714;17.322;2023-09-19T08:40:09;2.45;;;1.10;;
64520;SDS011;50896;46.714;17.322;2023-09-19T08:42:49;2.25;;;1.10;;
64520;SDS011;50896;46.714;17.322;2023-09-19T08:45:17;3.38;;;1.30;;
64520;SDS011;50896;46.714;17.322;2023-09-19T08:47:45;2.53;;;1.35;;
64520;SDS011;50896;46.714;17.322;2023-09-19T08:50:25;3.60;;;1.17;;
64520;SDS011;50896;46.714;17.322;2023-09-19T08:52:55;1.73;;;0.90;;
64520;SDS011;50896;46.714;17.322;2023-09-19T08:55:26;2.22;;;1.10;;
64520;SDS011;50896;46.714;17.322;2023-09-19T08:57:59;1.58;;;0.90;;
64520;SDS011;50896;46.714;17.322;2023-09-19T09:00:36;1.67;;;1.10;;
64520;SDS011;50896;46.714;17.322;2023-09-19T09:03:09;2.13;;;0.80;;
64520;SDS011;50896;46.714;17.322;2023-09-19T09:05:38;2.92;;;1.00;;
64520;SDS011;50896;46.714;17.322;2023-09-19T09:08:10;3.03;;;0.82;;
64520;SDS011;50896;46.714;17.322;2023-09-19T09:10:37;3.42;;;0.90;;
64520;SDS011;50896;46.714;17.322;2023-09-19T09:13:07;1.15;;;0.80;;
64520;SDS011;50896;46.714;17.322;2023-09-19T09:15:35;3.33;;;1.02;;
64520;SDS011;50896;46.714;17.322;2023-09-19T09:18:03;2.42;;;1.02;;
64520;SDS011;50896;46.714;17.322;2023-09-19T09:20:31;1.85;;;0.93;;
64520;SDS011;50896;46.714;17.322;2023-09-19T09:22:58;3.58;;;0.90;;
64520;SDS011;50896;46.714;17.322;2023-09-19T09:26:15;2.28;;;1.10;;
64520;SDS011;50896;46.714;17.322;2023-09-19T09:28:25;2.45;;;1.20;;
64520;SDS011;50896;46.714;17.322;2023-09-19T09:30:55;2.67;;;0.90;;
64520;SDS011;50896;46.714;17.322;2023-09-19T09:33:22;1.50;;;0.85;;
64520;SDS011;50896;46.714;17.322;2023-09-19T09:35:51;4.63;;;1.13;;
64520;SDS011;50896;46.714;17.322;2023-09-19T09:38:19;4.18;;;1.17;;
64520;SDS011;50896;46.714;17.322;2023-09-19T09:40:48;3.17;;;1.00;;
64520;SDS011;50896;46.714;17.322;2023-09-19T09:46:12;1.70;;;1.00;;
64520;SDS011;50896;46.714;17.322;2023-09-19T09:48:56;2.85;;;0.90;;
64520;SDS011;50896;46.714;17.322;2023-09-19T09:54:29;1.30;;;0.65;;
64520;SDS011;50896;46.714;17.322;2023-09-19T09:57:06;1.85;;;1.20;;
64520;SDS011;50896;46.714;17.322;2023-09-19T09:59:47;2.72;;;1.00;;
64520;SDS011;50896;46.714;17.322;2023-09-19T10:02:39;1.92;;;0.80;;
64520;SDS011;50896;46.714;17.322;2023-09-19T10:05:10;3.05;;;0.80;;
64520;SDS011;50896;46.714;17.322;2023-09-19T10:07:55;1.85;;;0.90;;
64520;SDS011;50896;46.714;17.322;2023-09-19T10:10:34;1.55;;;0.98;;
64520;SDS011;50896;46.714;17.322;2023-09-19T10:13:20;1.80;;;0.90;;
64520;SDS011;50896;46.714;17.322;2023-09-19T10:15:51;2.30;;;1.20;;
64520;SDS011;50896;46.714;17.322;2023-09-19T10:18:22;1.55;;;0.90;;
64520;SDS011;50896;46.714;17.322;2023-09-19T10:23:19;1.63;;;0.88;;
64520;SDS011;50896;46.714;17.322;2023-09-19T10:25:50;2.15;;;1.08;;
64520;SDS011;50896;46.714;17.322;2023-09-19T10:28:19;1.80;;;0.85;;
64520;SDS011;50896;46.714;17.322;2023-09-19T10:30:51;2.65;;;1.10;;
64520;SDS011;50896;46.714;17.322;2023-09-19T10:35:49;2.78;;;1.05;;
64520;SDS011;50896;46.714;17.322;2023-09-19T10:38:23;2.58;;;1.10;;
64520;SDS011;50896;46.714;17.322;2023-09-19T10:40:53;0.98;;;0.80;;
64520;SDS011;50896;46.714;17.322;2023-09-19T10:43:21;2.03;;;1.20;;
64520;SDS011;50896;46.714;17.322;2023-09-19T10:45:52;3.15;;;1.00;;
64520;SDS011;50896;46.714;17.322;2023-09-19T10:48:23;3.80;;;1.00;;
64520;SDS011;50896;46.714;17.322;2023-09-19T10:51:15;4.70;;;1.27;;
64520;SDS011;50896;46.714;17.322;2023-09-19T10:53:56;7.75;;;1.15;;
64520;SDS011;50896;46.714;17.322;2023-09-19T10:56:35;2.53;;;0.98;;
64520;SDS011;50896;46.714;17.322;2023-09-19T10:59:07;2.83;;;1.38;;
64520;SDS011;50896;46.714;17.322;2023-09-19T11:01:43;2.47;;;1.00;;
64520;SDS011;50896;46.714;17.322;2023-09-19T11:04:33;2.20;;;1.10;;
64520;SDS011;50896;46.714;17.322;2023-09-19T11:07:09;1.45;;;0.90;;
64520;SDS011;50896;46.714;17.322;2023-09-19T11:16:02;1.77;;;1.13;;
64520;SDS011;50896;46.714;17.322;2023-09-19T11:26:49;1.40;;;1.10;;
64520;SDS011;50896;46.714;17.322;2023-09-19T11:31:57;2.08;;;1.10;;
64520;SDS011;50896;46.714;17.322;2023-09-19T11:40:06;2.10;;;1.15;;
64520;SDS011;50896;46.714;17.322;2023-09-19T11:42:46;1.67;;;1.00;;
64520;SDS011;50896;46.714;17.322;2023-09-19T11:48:07;2.55;;;1.30;;
64520;SDS011;50896;46.714;17.322;2023-09-19T11:50:35;4.22;;;1.35;;
64520;SDS011;50896;46.714;17.322;2023-09-19T11:53:04;7.93;;;1.70;;
64520;SDS011;50896;46.714;17.322;2023-09-19T11:55:32;2.50;;;1.13;;
64520;SDS011;50896;46.714;17.322;2023-09-19T11:58:00;1.90;;;1.20;;
64520;SDS011;50896;46.714;17.322;2023-09-19T12:00:27;3.25;;;1.10;;
64520;SDS011;50896;46.714;17.322;2023-09-19T12:02:55;3.05;;;1.10;;
64520;SDS011;50896;46.714;17.322;2023-09-19T12:05:28;1.83;;;1.10;;
64520;SDS011;50896;46.714;17.322;2023-09-19T12:07:55;1.85;;;1.10;;
64520;SDS011;50896;46.714;17.322;2023-09-19T12:10:22;3.08;;;1.00;;
64520;SDS011;50896;46.714;17.322;2023-09-19T12:12:50;1.60;;;0.95;;
64520;SDS011;50896;46.714;17.322;2023-09-19T12:15:36;2.80;;;1.10;;
64520;SDS011;50896;46.714;17.322;2023-09-19T12:18:05;3.72;;;1.25;;
64520;SDS011;50896;46.714;17.322;2023-09-19T12:20:44;1.90;;;1.23;;
64520;SDS011;50896;46.714;17.322;2023-09-19T12:23:16;3.25;;;1.38;;
64520;SDS011;50896;46.714;17.322;2023-09-19T12:25:44;2.63;;;1.20;;
64520;SDS011;50896;46.714;17.322;2023-09-19T12:28:14;2.15;;;1.17;;
64520;SDS011;50896;46.714;17.322;2023-09-19T12:30:43;1.88;;;1.25;;
64520;SDS011;50896;46.714;17.322;2023-09-19T12:33:17;2.83;;;1.10;;
64520;SDS011;50896;46.714;17.322;2023-09-19T12:35:47;3.72;;;1.10;;
64520;SDS011;50896;46.714;17.322;2023-09-19T12:38:26;2.65;;;1.10;;
64520;SDS011;50896;46.714;17.322;2023-09-19T12:40:57;1.77;;;1.00;;
64520;SDS011;50896;46.714;17.322;2023-09-19T12:43:30;6.72;;;1.23;;
64520;SDS011;50896;46.714;17.322;2023-09-19T12:46:02;2.45;;;1.00;;
64520;SDS011;50896;46.714;17.322;2023-09-19T12:48:31;1.52;;;1.00;;
64520;SDS011;50896;46.714;17.322;2023-09-19T12:51:02;2.30;;;0.90;;
64520;SDS011;50896;46.714;17.322;2023-09-19T12:53:40;2.60;;;1.25;;
64520;SDS011;50896;46.714;17.322;2023-09-19T12:56:13;3.78;;;1.27;;
64520;SDS011;50896;46.714;17.322;2023-09-19T13:01:16;2.67;;;1.23;;
64520;SDS011;50896;46.714;17.322;2023-09-19T13:03:44;1.85;;;1.15;;
64520;SDS011;50896;46.714;17.322;2023-09-19T13:06:11;1.70;;;1.10;;
64520;SDS011;50896;46.714;17.322;2023-09-19T13:08:39;3.92;;;1.30;;
64520;SDS011;50896;46.714;17.322;2023-09-19T13:11:10;2.28;;;1.00;;
64520;SDS011;50896;46.714;17.322;2023-09-19T13:13:44;2.03;;;1.10;;
64520;SDS011;50896;46.714;17.322;2023-09-19T13:16:16;3.15;;;1.00;;
64520;SDS011;50896;46.714;17.322;2023-09-19T13:18:52;3.15;;;1.70;;
64520;SDS011;50896;46.714;17.322;2023-09-19T13:21:27;1.20;;;0.90;;
64520;SDS011;50896;46.714;17.322;2023-09-19T13:23:55;1.67;;;0.90;;
64520;SDS011;50896;46.714;17.322;2023-09-19T13:26:42;1.63;;;1.02;;
64520;SDS011;50896;46.714;17.322;2023-09-19T13:29:09;1.75;;;1.17;;
64520;SDS011;50896;46.714;17.322;2023-09-19T13:31:36;1.45;;;1.00;;
64520;SDS011;50896;46.714;17.322;2023-09-19T13:34:08;1.10;;;1.00;;
64520;SDS011;50896;46.714;17.322;2023-09-19T13:36:35;2.53;;;1.15;;
64520;SDS011;50896;46.714;17.322;2023-09-19T13:39:03;2.43;;;1.10;;
64520;SDS011;50896;46.714;17.322;2023-09-19T13:41:31;1.15;;;0.90;;
64520;SDS011;50896;46.714;17.322;2023-09-19T13:43:58;1.88;;;1.10;;
64520;SDS011;50896;46.714;17.322;2023-09-19T13:46:25;2.45;;;1.10;;
64520;SDS011;50896;46.714;17.322;2023-09-19T13:48:54;2.88;;;1.00;;
64520;SDS011;50896;46.714;17.322;2023-09-19T13:51:25;1.92;;;0.90;;
64520;SDS011;50896;46.714;17.322;2023-09-19T13:53:52;2.38;;;1.10;;
64520;SDS011;50896;46.714;17.322;2023-09-19T13:56:20;3.50;;;0.98;;
64520;SDS011;50896;46.714;17.322;2023-09-19T13:58:47;1.17;;;0.90;;
64520;SDS011;50896;46.714;17.322;2023-09-19T14:01:14;1.75;;;1.00;;
64520;SDS011;50896;46.714;17.322;2023-09-19T14:03:41;4.50;;;1.13;;
64520;SDS011;50896;46.714;17.322;2023-09-19T14:06:13;2.55;;;1.13;;
64520;SDS011;50896;46.714;17.322;2023-09-19T14:08:40;2.00;;;1.08;;
64520;SDS011;50896;46.714;17.322;2023-09-19T14:11:07;3.50;;;1.25;;
64520;SDS011;50896;46.714;17.322;2023-09-19T14:13:35;2.90;;;1.13;;
64520;SDS011;50896;46.714;17.322;2023-09-19T14:16:03;2.28;;;1.20;;
64520;SDS011;50896;46.714;17.322;2023-09-19T14:18:33;1.90;;;1.05;;
64520;SDS011;50896;46.714;17.322;2023-09-19T14:21:04;4.05;;;1.30;;
64520;SDS011;50896;46.714;17.322;2023-09-19T14:23:35;2.88;;;0.88;;
64520;SDS011;50896;46.714;17.322;2023-09-19T14:26:02;2.45;;;0.90;;
64520;SDS011;50896;46.714;17.322;2023-09-19T14:28:32;1.60;;;1.00;;
64520;SDS011;50896;46.714;17.322;2023-09-19T14:31:06;2.80;;;1.30;;
64520;SDS011;50896;46.714;17.322;2023-09-19T14:33:35;3.05;;;1.20;;
64520;SDS011;50896;46.714;17.322;2023-09-19T14:36:06;2.47;;;1.20;;
64520;SDS011;50896;46.714;17.322;2023-09-19T14:38:36;1.90;;;1.08;;
64520;SDS011;50896;46.714;17.322;2023-09-19T14:41:05;2.92;;;1.23;;
64520;SDS011;50896;46.714;17.322;2023-09-19T14:43:33;2.20;;;1.17;;
64520;SDS011;50896;46.714;17.322;2023-09-19T14:46:03;1.55;;;0.90;;
64520;SDS011;50896;46.714;17.322;2023-09-19T14:48:37;3.45;;;1.00;;
64520;SDS011;50896;46.714;17.322;2023-09-19T14:51:05;1.38;;;1.00;;
64520;SDS011;50896;46.714;17.322;2023-09-19T14:53:33;1.80;;;1.13;;
64520;SDS011;50896;46.714;17.322;2023-09-19T14:56:00;2.75;;;1.00;;
64520;SDS011;50896;46.714;17.322;2023-09-19T14:58:31;2.58;;;0.93;;
64520;SDS011;50896;46.714;17.322;2023-09-19T15:01:06;2.97;;;1.20;;
64520;SDS011;50896;46.714;17.322;2023-09-19T15:03:34;2.33;;;1.20;;
64520;SDS011;50896;46.714;17.322;2023-09-19T15:06:07;1.70;;;1.02;;
64520;SDS011;50896;46.714;17.322;2023-09-19T15:08:36;1.90;;;0.95;;
64520;SDS011;50896;46.714;17.322;2023-09-19T15:11:07;2.50;;;1.10;;
64520;SDS011;50896;46.714;17.322;2023-09-19T15:13:34;1.70;;;1.20;;
64520;SDS011;50896;46.714;17.322;2023-09-19T15:16:03;1.55;;;1.10;;
64520;SDS011;50896;46.714;17.322;2023-09-19T15:18:30;2.00;;;1.07;;
64520;SDS011;50896;46.714;17.322;2023-09-19T15:21:02;1.95;;;1.17;;
64520;SDS011;50896;46.714;17.322;2023-09-19T15:23:30;3.03;;;1.20;;
64520;SDS011;50896;46.714;17.322;2023-09-19T15:25:59;5.85;;;1.25;;
64520;SDS011;50896;46.714;17.322;2023-09-19T15:28:26;1.83;;;1.10;;
64520;SDS011;50896;46.714;17.322;2023-09-19T15:31:02;1.45;;;0.90;;
64520;SDS011;50896;46.714;17.322;2023-09-19T15:33:30;2.33;;;1.20;;
64520;SDS011;50896;46.714;17.322;2023-09-19T15:36:01;2.42;;;1.08;;
64520;SDS011;50896;46.714;17.322;2023-09-19T15:41:27;4.55;;;1.35;;
64520;SDS011;50896;46.714;17.322;2023-09-19T15:43:55;2.35;;;1.15;;
64520;SDS011;50896;46.714;17.322;2023-09-19T15:46:23;2.10;;;1.10;;